TimeMDT,TemperatureF,Dew PointF,Humidity,Sea Level PressureIn,VisibilityMPH,Wind Direction,Wind SpeedMPH,Gust SpeedMPH,PrecipitationIn,Events,Conditions,WindDirDegrees,DateUTC
12:15 AM,21.9,-16.1,18,30.10,10.0,NW,3.5,-,N/A,,Scattered Clouds,310,2013-03-24 06:15:00
12:35 AM,21.6,-16.1,18,30.10,10.0,NNW,4.6,-,N/A,,Scattered Clouds,340,2013-03-24 06:35:00
12:55 AM,23.5,-15.9,17,30.10,10.0,Calm,Calm,-,N/A,,Mostly Cloudy,0,2013-03-24 06:55:00
1:15 AM,25.5,-14.6,17,30.10,10.0,Calm,Calm,-,N/A,,Overcast,0,2013-03-24 07:15:00
1:35 AM,25.7,-15.0,16,30.10,10.0,Calm,Calm,-,N/A,,Overcast,0,2013-03-24 07:35:00
1:55 AM,24.3,-15.2,17,30.09,10.0,North,3.5,-,N/A,,Overcast,350,2013-03-24 07:55:00
2:15 AM,23.4,-14.8,18,30.09,10.0,NNW,4.6,-,N/A,,Overcast,330,2013-03-24 08:15:00
2:35 AM,23.2,-15.3,18,30.08,10.0,NW,4.6,-,N/A,,Overcast,310,2013-03-24 08:35:00
2:55 AM,24.8,-14.4,17,30.09,10.0,WNW,4.6,-,N/A,,Mostly Cloudy,300,2013-03-24 08:55:00
3:15 AM,23.7,-14.4,18,30.08,10.0,West,5.8,-,N/A,,Mostly Cloudy,280,2013-03-24 09:15:00
3:35 AM,21.4,-14.3,20,30.07,10.0,WSW,4.6,-,N/A,,Scattered Clouds,250,2013-03-24 09:35:00
3:55 AM,20.7,-14.3,21,30.07,10.0,Calm,Calm,-,N/A,,Clear,0,2013-03-24 09:55:00
4:15 AM,19.2,-15.3,21,30.07,10.0,Calm,Calm,-,N/A,,Clear,0,2013-03-24 10:15:00
4:35 AM,17.6,-14.6,23,30.07,10.0,Calm,Calm,-,N/A,,Scattered Clouds,0,2013-03-24 10:35:00
4:55 AM,14.0,-15.7,26,30.08,10.0,Calm,Calm,-,N/A,,Clear,0,2013-03-24 10:55:00
5:15 AM,13.1,-15.3,27,30.08,10.0,Calm,Calm,-,N/A,,Clear,0,2013-03-24 11:15:00
5:35 AM,12.2,-16.8,26,30.09,10.0,WNW,4.6,-,N/A,,Clear,300,2013-03-24 11:35:00
5:55 AM,15.4,-14.1,26,30.10,10.0,WNW,4.6,-,N/A,,Clear,290,2013-03-24 11:55:00
6:35 AM,11.3,-15.5,29,30.10,10.0,NW,5.8,-,N/A,,Clear,320,2013-03-24 12:35:00
6:55 AM,11.3,-16.4,28,30.11,10.0,NW,4.6,-,N/A,,Clear,310,2013-03-24 12:55:00
7:15 AM,11.5,-15.5,29,30.12,10.0,NW,4.6,-,N/A,,Clear,310,2013-03-24 13:15:00
7:35 AM,11.7,-15.9,28,30.12,10.0,WNW,3.5,-,N/A,,Clear,290,2013-03-24 13:35:00
7:55 AM,16.2,-13.4,26,30.12,10.0,NW,3.5,-,N/A,,Clear,320,2013-03-24 13:55:00
8:15 AM,18.7,-12.8,24,30.12,10.0,NNW,3.5,-,N/A,,Clear,340,2013-03-24 14:15:00
8:35 AM,21.4,-13.0,21,30.12,10.0,NNW,4.6,-,N/A,,Clear,330,2013-03-24 14:35:00
8:55 AM,23.7,-12.1,20,30.12,10.0,NNW,4.6,-,N/A,,Clear,340,2013-03-24 14:55:00
9:15 AM,27.3,-10.7,19,30.11,10.0,NNW,5.8,-,N/A,,Clear,340,2013-03-24 15:15:00
9:35 AM,29.8,-11.9,16,30.11,10.0,NNW,6.9,-,N/A,,Clear,330,2013-03-24 15:35:00
9:55 AM,32.0,-11.0,15,30.10,10.0,NNW,6.9,-,N/A,,Clear,330,2013-03-24 15:55:00
10:15 AM,34.0,-10.1,15,30.10,10.0,North,8.1,-,N/A,,Clear,350,2013-03-24 16:15:00
10:35 AM,36.7,-9.0,14,30.09,10.0,North,10.4,-,N/A,,Clear,350,2013-03-24 16:35:00
10:55 AM,39.6,-6.9,14,30.08,10.0,North,8.1,-,N/A,,Clear,360,2013-03-24 16:55:00
11:15 AM,41.5,-3.6,15,30.07,10.0,NNW,17.3,25.3,N/A,,Clear,340,2013-03-24 17:15:00
11:35 AM,44.1,-0.6,16,30.06,10.0,NNW,18.4,28.8,N/A,,Clear,330,2013-03-24 17:35:00
11:55 AM,44.8,-0.0,16,30.06,10.0,NW,17.3,25.3,N/A,,Clear,320,2013-03-24 17:55:00
12:15 PM,46.2,0.5,15,30.04,10.0,NNW,15.0,25.3,N/A,,Clear,340,2013-03-24 18:15:00
12:35 PM,46.9,1.4,15,30.04,10.0,NNW,15.0,23.0,N/A,,Clear,340,2013-03-24 18:35:00
12:55 PM,47.1,1.2,15,30.03,10.0,North,16.1,27.6,N/A,,Clear,350,2013-03-24 18:55:00
1:15 PM,48.4,1.4,14,30.02,10.0,North,13.8,25.3,N/A,,Clear,350,2013-03-24 19:15:00
1:35 PM,49.3,1.0,14,30.00,10.0,NNW,11.5,29.9,N/A,,Clear,340,2013-03-24 19:35:00
1:55 PM,50.9,0.7,13,29.99,10.0,NW,18.4,24.2,N/A,,Clear,320,2013-03-24 19:55:00
2:15 PM,50.9,-1.1,12,29.98,10.0,NW,19.6,28.8,N/A,,Clear,320,2013-03-24 20:15:00
2:35 PM,52.3,-0.0,12,29.97,10.0,NW,19.6,25.3,N/A,,Clear,320,2013-03-24 20:35:00
2:55 PM,52.2,-0.8,11,29.97,10.0,WNW,9.2,32.2,N/A,,Clear,300,2013-03-24 20:55:00
3:15 PM,52.5,-1.5,11,29.95,10.0,NW,15.0,26.5,N/A,,Clear,320,2013-03-24 21:15:00
3:35 PM,52.9,-1.5,11,29.95,10.0,NW,15.0,27.6,N/A,,Clear,310,2013-03-24 21:35:00
3:55 PM,53.4,-2.2,10,29.94,10.0,NW,23.0,28.8,N/A,,Clear,320,2013-03-24 21:55:00
4:15 PM,53.1,-2.6,10,29.94,10.0,NW,24.2,34.5,N/A,,Clear,320,2013-03-24 22:15:00
4:35 PM,52.7,-2.9,10,29.94,10.0,WNW,19.6,31.1,N/A,,Clear,290,2013-03-24 22:35:00
4:55 PM,52.9,-3.6,10,29.94,10.0,NW,21.9,29.9,N/A,,Clear,310,2013-03-24 22:55:00
5:15 PM,52.2,-3.8,10,29.94,10.0,WNW,23.0,33.4,N/A,,Clear,300,2013-03-24 23:15:00
5:35 PM,51.8,-3.5,10,29.94,10.0,WNW,17.3,31.1,N/A,,Clear,300,2013-03-24 23:35:00
5:55 PM,51.3,-3.3,11,29.95,10.0,NNW,20.7,25.3,N/A,,Clear,330,2013-03-24 23:55:00
6:15 PM,50.5,-3.1,11,29.95,10.0,NNW,19.6,31.1,N/A,,Clear,330,2013-03-25 00:15:00
6:35 PM,48.7,-3.1,12,29.96,10.0,NNW,16.1,26.5,N/A,,Clear,340,2013-03-25 00:35:00
6:55 PM,46.9,-3.5,12,29.97,10.0,North,16.1,23.0,N/A,,Clear,350,2013-03-25 00:55:00
7:15 PM,45.1,-3.6,13,29.98,10.0,NNW,13.8,23.0,N/A,,Clear,340,2013-03-25 01:15:00
7:35 PM,43.2,-3.6,14,29.99,10.0,North,11.5,-,N/A,,Clear,360,2013-03-25 01:35:00
7:55 PM,41.0,-3.6,15,30.00,10.0,NNW,9.2,-,N/A,,Clear,340,2013-03-25 01:55:00
8:15 PM,39.4,-3.8,16,30.02,10.0,NNW,6.9,-,N/A,,Clear,340,2013-03-25 02:15:00
8:35 PM,36.9,-4.0,18,30.03,10.0,NNW,8.1,-,N/A,,Clear,330,2013-03-25 02:35:00
8:55 PM,33.4,-5.4,19,30.04,10.0,NW,5.8,-,N/A,,Clear,310,2013-03-25 02:55:00
9:15 PM,33.4,-4.5,20,30.06,10.0,NW,5.8,-,N/A,,Clear,310,2013-03-25 03:15:00
9:35 PM,29.7,-4.9,22,30.06,10.0,WNW,4.6,-,N/A,,Clear,300,2013-03-25 03:35:00
9:55 PM,32.0,-4.0,21,30.07,10.0,NNW,3.5,-,N/A,,Clear,330,2013-03-25 03:55:00
10:15 PM,29.7,-5.1,22,30.07,10.0,North,4.6,-,N/A,,Clear,350,2013-03-25 04:15:00
10:35 PM,27.1,-5.1,25,30.07,10.0,WNW,5.8,-,N/A,,Clear,300,2013-03-25 04:35:00
10:55 PM,30.4,-3.5,23,30.08,10.0,North,4.6,-,N/A,,Clear,10,2013-03-25 04:55:00
11:15 PM,28.6,-5.1,23,30.09,10.0,North,3.5,-,N/A,,Clear,360,2013-03-25 05:15:00
11:35 PM,25.3,-5.4,26,30.09,10.0,North,3.5,-,N/A,,Clear,360,2013-03-25 05:35:00
11:55 PM,22.6,-7.1,27,30.09,10.0,North,5.8,-,N/A,,Clear,360,2013-03-25 05:55:00